• Join FlightAware (Why Join?)
  • Login
  • US Flag 
02:12AM EDT


 

Airport Tracker/Info


-or-


 

Live Flight TrackerFlight Track Log ✈ N595A ✈ 24-Apr-2013 ✈ KFTW - KHOU

Flight Track Log - Related Links

Times and Time Zones

All times are in EDT time to prevent confusion due to time zone crossing. See the N595A flight status page for this flight to view local times or setup timezone preferences in your user account.

Time Position Orientation Groundspeed Altitude Reporting Facility
EDT Latitude Longitude Course Direction KTS MPH feet Rate Location/Type
02:52PM 32.8333 -97.3833 270° West 167 192 2,600  Level Dallas / Fort Worth TRACON
02:53PM 32.8333 -97.4500 270° West 210 242 3,000 1,200 Climbing Dallas / Fort Worth TRACON
02:53PM 32.8500 -97.5167 287° West 253 291 4,900 1,920 Climbing Dallas / Fort Worth TRACON
02:56PM 32.7625 -97.4356 142° Southeast 316 364 9,000 1,260 Climbing Fort Worth Center
02:57PM 32.7581 -97.3244 93° East 316 364 9,000 360 Level Fort Worth Center
02:58PM 32.7331 -97.2356 108° East 305 351 9,800 960 Climbing Fort Worth Center
02:59PM 32.6764 -97.1369 124° Southeast 321 369 11,000 1,200 Climbing Fort Worth Center
03:00PM 32.6136 -97.0508 131° Southeast 365 420 12,300 960 Climbing Fort Worth Center
03:01PM 32.5153 -96.9947 154° Southeast 365 420 13,000 300 Climbing Fort Worth Center
03:02PM 32.4172 -96.9706 168° South 360 414 13,000  Level Fort Worth Center
03:03PM 32.3147 -96.9464 169° South 373 429 13,000 960 Level Fort Worth Center
03:04PM 32.2125 -96.9272 171° South 373 429 15,000 2,400 Climbing Fort Worth Center
03:05PM 32.1081 -96.9081 171° South 373 429 17,900 2,700 Climbing Fort Worth Center
03:06PM 31.9972 -96.8867 171° South 392 451 20,400 2,400 Climbing Fort Worth Center
03:07PM 31.8864 -96.8703 173° South 397 457 22,700 1,140 Climbing Fort Worth Center
03:08PM 31.7717 -96.8464 170° South 412 474 22,700 120 Level Fort Worth Center
03:09PM 31.6567 -96.8275 172° South 412 474 23,000 120 Climbing Fort Worth Center
03:10PM 31.5403 -96.8106 173° South 416 479 23,000  Level Houston Center
03:11PM 31.4247 -96.7931 173° South 413 475 23,000  Level Houston Center
03:12PM 31.3072 -96.7736 172° South 418 481 23,000  Level Houston Center
03:13PM 31.1900 -96.7542 172° South 418 481 23,000  Level Houston Center
03:14PM 31.0731 -96.7350 172° South 418 481 23,000  Level Houston Center
03:15PM 30.9356 -96.7142 173° South 419 482 23,000  Level Houston Center
03:16PM 30.8175 -96.6958 172° South 420 483 23,000 -300 Level Houston Center
03:17PM 30.6997 -96.6761 172° South 420 483 22,500 -1,260 Descending Houston Center
03:18PM 30.5872 -96.6464 167° South 414 476 20,400 -2,040 Descending Houston Center
03:19PM 30.4994 -96.5572 139° Southeast 415 478 18,300 -1,980 Descending Houston Center
03:20PM 30.4189 -96.4600 134° Southeast 414 476 16,400 -1,980 Descending Houston Center
03:20PM 30.3853 -96.4225 136° Southeast 404 465 15,500 -2,040 Descending Houston Center
03:21PM 30.3431 -96.3697 133° Southeast 392 451 14,300 -1,980 Descending Houston Center
03:21PM 30.3061 -96.3275 135° Southeast 382 440 13,500 -1,800 Descending Houston Center
03:22PM 30.2694 -96.2811 132° Southeast 379 436 12,500 -1,920 Descending Houston Center
03:22PM 30.2361 -96.2433 136° Southeast 360 414 11,600 -1,500 Descending Houston Center
03:23PM 30.1836 -96.1922 140° Southeast 350 403 11,000 -600 Descending Houston Center
03:24PM 30.1486 -96.1758 158° South 352 405 11,000  Level Houston Center
03:24PM 30.1058 -96.1525 155° Southeast 355 409 11,000  Level Houston Center
03:25PM 30.0606 -96.1281 155° Southeast 349 402 11,000  Level Houston Center
03:25PM 30.0003 -96.0961 155° Southeast 349 402 11,000  Level Houston Center
03:26PM 29.9639 -96.0786 157° South 349 402 11,000  Level Houston Center
03:26PM 29.9183 -96.0500 151° Southeast 326 375 11,000  Level Houston Center
03:27PM 29.8917 -96.0169 133° Southeast 316 364 11,000  Level Houston Center
03:27PM 29.8644 -95.9794 130° Southeast 324 373 11,000  Level Houston Center
03:28PM 29.8372 -95.9461 133° Southeast 324 373 11,000 -540 Level Houston Center
03:28PM 29.8044 -95.9031 131° Southeast 322 371 10,500 -1,440 Descending Houston Center
03:29PM 29.7711 -95.8622 133° Southeast 319 367 9,400 -1,980 Descending Houston Center
03:29PM 29.7353 -95.8153 131° Southeast 309 356 8,500 -1,620 Descending Houston Center
03:30PM 29.6814 -95.7481 133° Southeast 291 335 6,700 -1,740 Descending Houston Center
03:31PM 29.6600 -95.7214 133° Southeast 284 327 6,200 -720 Descending Houston Center
03:31PM 29.6319 -95.6850 132° Southeast 273 314 6,000 -120 Descending Houston Center
03:33PM 29.5744 -95.6111 132° Southeast 235 270 6,000 -720 Level Houston Center
03:34PM 29.5294 -95.5542 132° Southeast 235 270 4,500 -1,320 Descending Houston Center
03:35PM 29.4994 -95.5000 122° Southeast 225 259 3,500 -840 Descending Houston Center
03:36PM 29.5222 -95.4461 64° Northeast 211 243 3,000 -360 Descending Houston Center
03:37PM 29.5453 -95.3944 63° Northeast 192 221 2,800 -660 Descending Houston Center
03:38PM 29.5767 -95.3542 48° Northeast 178 205 1,700 -900 Descending Houston Center
03:39PM 29.6053 -95.3225 44° Northeast 159 183 1,000 -660 Descending Houston Center
03:40PM 29.6283 -95.2961 45° Northeast 134 154 400 -480 Descending Houston Center
03:41PM 29.6561 -95.2661 43° Northeast 128 147 100 -300 Descending Houston Center